Terminal Aerodrome Forecast
Issued by NWS

Home | Current Version | Previous Version | Graphics & Text | Print | Product List | Glossary On
Versions: 1 2 3 4 5 6 7 8 9 10 11 12 13 14 15 16 17 18
000
FTUS43 KABR 190100 AAA
TAFPIR
TAF AMD
KPIR 190135Z 1902/1924 15008KT P6SM BKN150
     FM191000 18011KT P6SM BKN020
     FM191500 25008KT P6SM SCT020
     FM191800 29008KT P6SM BKN250=

USA.gov is the U.S. government's official web portal to all federal, state and local government web resources and services.